AFR498 LFPG-TNCM
Flight info
| Callsign | AFR498 |
|---|---|
| Flight time | N/A |
| Altitude | 36000 |
| Route | LGL UN491 UPALO/N0469F350 DCT FEJAC DCT REGHI/M082F360 DCT ETIKI DCT 46N020W 42N030W 36N040W/M082F380 33N045W 30N050W 26N055W DCT RKDIA M576 OBIKE/N0464F380 M576 PJM |
| Aircraft | A343/H-SDE2E3FGHIJ4J5M1RWXY/LB1D1 |
Departure
| Time | 2026-05-08 08:11 |
|---|---|
| Airport | Charles de Gaulle International Airport (LFPG) |
Arrival
| Time | N/A |
|---|---|
| Airport | Princess Juliana International Airport (TNCM) |
| Time | Latitude | Longitude | Altitude | Speed | Heading |
|---|---|---|---|---|---|
| 2026-05-08 07:24 | 49.00137 | 2.57721 | 359 ft | 0 kts | 355° |
| 2026-05-08 07:54 | 49.00134 | 2.57722 | 358 ft | 3 kts | 355° |
| 2026-05-08 07:55 | 49.00109 | 2.57726 | 365 ft | 4 kts | 354° |
| 2026-05-08 07:55 | 49.00083 | 2.57734 | 363 ft | 4 kts | 329° |
| 2026-05-08 07:55 | 49.00066 | 2.57761 | 364 ft | 4 kts | 284° |
| 2026-05-08 07:55 | 49.00064 | 2.57783 | 364 ft | 1 kts | 265° |
| 2026-05-08 08:00 | 49.00064 | 2.57773 | 358 ft | 1 kts | 265° |
| 2026-05-08 08:00 | 49.00062 | 2.57738 | 360 ft | 5 kts | 265° |
| 2026-05-08 08:00 | 49.00059 | 2.57682 | 365 ft | 6 kts | 265° |
| 2026-05-08 08:00 | 49.00055 | 2.57615 | 360 ft | 7 kts | 265° |
| 2026-05-08 08:01 | 49.00051 | 2.57536 | 365 ft | 8 kts | 265° |
| 2026-05-08 08:01 | 49.00046 | 2.57446 | 365 ft | 9 kts | 265° |
| 2026-05-08 08:01 | 49.00039 | 2.57348 | 358 ft | 10 kts | 259° |
| 2026-05-08 08:01 | 48.99995 | 2.57286 | 365 ft | 9 kts | 189° |
| 2026-05-08 08:02 | 48.99954 | 2.57232 | 362 ft | 8 kts | 253° |
| 2026-05-08 08:02 | 48.99948 | 2.57144 | 364 ft | 9 kts | 266° |
| 2026-05-08 08:02 | 48.99943 | 2.57048 | 364 ft | 10 kts | 265° |
| 2026-05-08 08:02 | 48.99937 | 2.56942 | 358 ft | 10 kts | 265° |
| 2026-05-08 08:03 | 48.99931 | 2.56828 | 361 ft | 11 kts | 265° |
| 2026-05-08 08:03 | 48.99923 | 2.56706 | 359 ft | 12 kts | 265° |
| 2026-05-08 08:03 | 48.99917 | 2.56576 | 365 ft | 13 kts | 266° |
| 2026-05-08 08:03 | 48.99911 | 2.56440 | 363 ft | 13 kts | 265° |
| 2026-05-08 08:04 | 48.99905 | 2.56322 | 361 ft | 10 kts | 265° |
| 2026-05-08 08:04 | 48.99899 | 2.56213 | 361 ft | 11 kts | 265° |
| 2026-05-08 08:04 | 48.99893 | 2.56097 | 360 ft | 12 kts | 265° |
| 2026-05-08 08:04 | 48.99888 | 2.55972 | 365 ft | 12 kts | 272° |
| 2026-05-08 08:05 | 48.99907 | 2.55843 | 365 ft | 13 kts | 284° |
| 2026-05-08 08:05 | 48.99932 | 2.55726 | 365 ft | 11 kts | 290° |
| 2026-05-08 08:05 | 48.99927 | 2.55612 | 367 ft | 11 kts | 245° |
| 2026-05-08 08:05 | 48.99906 | 2.55537 | 364 ft | 12 kts | 250° |
| 2026-05-08 08:06 | 48.99893 | 2.55410 | 358 ft | 12 kts | 266° |
| 2026-05-08 08:06 | 48.99886 | 2.55275 | 366 ft | 13 kts | 265° |
| 2026-05-08 08:06 | 48.99879 | 2.55133 | 363 ft | 14 kts | 266° |
| 2026-05-08 08:06 | 48.99870 | 2.54994 | 365 ft | 13 kts | 264° |
| 2026-05-08 08:07 | 48.99863 | 2.54895 | 365 ft | 9 kts | 261° |
| 2026-05-08 08:07 | 48.99825 | 2.54834 | 365 ft | 8 kts | 202° |
| 2026-05-08 08:07 | 48.99769 | 2.54841 | 367 ft | 9 kts | 158° |
| 2026-05-08 08:07 | 48.99731 | 2.54908 | 366 ft | 9 kts | 114° |
| 2026-05-08 08:08 | 48.99706 | 2.54993 | 365 ft | 9 kts | 116° |
| 2026-05-08 08:08 | 48.99684 | 2.55062 | 365 ft | 0 kts | 116° |
| 2026-05-08 08:08 | 48.99681 | 2.55070 | 358 ft | 1 kts | 116° |
| 2026-05-08 08:08 | 48.99675 | 2.55089 | 365 ft | 3 kts | 114° |
| 2026-05-08 08:09 | 48.99667 | 2.55118 | 365 ft | 4 kts | 114° |
| 2026-05-08 08:09 | 48.99648 | 2.55180 | 362 ft | 9 kts | 115° |
| 2026-05-08 08:09 | 48.99619 | 2.55266 | 363 ft | 9 kts | 117° |
| 2026-05-08 08:09 | 48.99585 | 2.55363 | 365 ft | 12 kts | 118° |
| 2026-05-08 08:10 | 48.99579 | 2.55456 | 360 ft | 0 kts | 84° |
| 2026-05-08 08:10 | 48.99580 | 2.55465 | 360 ft | 8 kts | 85° |
| 2026-05-08 08:10 | 48.99601 | 2.55856 | 364 ft | 66 kts | 85° |
| 2026-05-08 08:10 | 48.99653 | 2.56800 | 363 ft | 114 kts | 85° |
| 2026-05-08 08:11 | 48.99728 | 2.58219 | 366 ft | 153 kts | 85° |
| 2026-05-08 08:11 | 48.99818 | 2.59964 | 643 ft | 166 kts | 84° |
| 2026-05-08 08:11 | 48.99916 | 2.61674 | 1271 ft | 162 kts | 84° |
| 2026-05-08 08:11 | 49.00014 | 2.63415 | 1824 ft | 169 kts | 86° |
| 2026-05-08 08:12 | 49.00096 | 2.65246 | 2469 ft | 176 kts | 85° |
| 2026-05-08 08:12 | 49.00228 | 2.67115 | 3211 ft | 177 kts | 84° |
| 2026-05-08 08:12 | 49.00336 | 2.68997 | 3846 ft | 185 kts | 85° |
| 2026-05-08 08:12 | 49.00447 | 2.71086 | 4103 ft | 214 kts | 85° |
| 2026-05-08 08:13 | 49.00572 | 2.73486 | 4440 ft | 241 kts | 85° |
| 2026-05-08 08:13 | 49.00682 | 2.76116 | 5071 ft | 255 kts | 86° |
| 2026-05-08 08:13 | 49.00585 | 2.78868 | 5795 ft | 265 kts | 98° |
| 2026-05-08 08:13 | 49.00297 | 2.81675 | 6615 ft | 272 kts | 99° |
| 2026-05-08 08:14 | 48.99990 | 2.84562 | 7375 ft | 279 kts | 98° |
| 2026-05-08 08:14 | 48.99687 | 2.87511 | 8150 ft | 285 kts | 99° |
| 2026-05-08 08:14 | 48.99384 | 2.90513 | 8991 ft | 288 kts | 99° |
| 2026-05-08 08:14 | 48.99079 | 2.93550 | 9812 ft | 292 kts | 99° |
| 2026-05-08 08:15 | 48.98680 | 2.96605 | 10533 ft | 297 kts | 109° |
| 2026-05-08 08:15 | 48.97676 | 2.99324 | 11258 ft | 296 kts | 135° |
| 2026-05-08 08:15 | 48.96014 | 3.01091 | 12019 ft | 292 kts | 161° |
| 2026-05-08 08:15 | 48.94038 | 3.01581 | 12779 ft | 289 kts | 186° |
| 2026-05-08 08:16 | 48.92131 | 3.00754 | 13537 ft | 287 kts | 210° |
| 2026-05-08 08:16 | 48.90627 | 2.98780 | 14224 ft | 290 kts | 233° |
| 2026-05-08 08:16 | 48.89732 | 2.95971 | 14594 ft | 304 kts | 252° |
| 2026-05-08 08:16 | 48.89181 | 2.92781 | 14878 ft | 320 kts | 255° |
| 2026-05-08 08:17 | 48.88651 | 2.89420 | 15152 ft | 335 kts | 255° |
| 2026-05-08 08:17 | 48.88081 | 2.85894 | 15429 ft | 350 kts | 255° |
| 2026-05-08 08:17 | 48.87475 | 2.82238 | 15717 ft | 364 kts | 254° |
| 2026-05-08 08:17 | 48.86837 | 2.78450 | 16140 ft | 374 kts | 254° |
| 2026-05-08 08:18 | 48.86183 | 2.74599 | 16702 ft | 379 kts | 254° |
| 2026-05-08 08:18 | 48.85519 | 2.70706 | 17314 ft | 383 kts | 254° |
| 2026-05-08 08:18 | 48.84845 | 2.66781 | 17929 ft | 387 kts | 254° |
| 2026-05-08 08:18 | 48.84162 | 2.62810 | 18523 ft | 391 kts | 254° |
| 2026-05-08 08:19 | 48.83471 | 2.58805 | 19097 ft | 393 kts | 254° |
| 2026-05-08 08:19 | 48.82775 | 2.54786 | 19657 ft | 395 kts | 254° |
| 2026-05-08 08:19 | 48.82073 | 2.50739 | 20217 ft | 398 kts | 254° |
| 2026-05-08 08:19 | 48.81363 | 2.46658 | 20753 ft | 401 kts | 254° |
| 2026-05-08 08:20 | 48.80657 | 2.42552 | 21296 ft | 404 kts | 255° |
| 2026-05-08 08:20 | 48.80183 | 2.38323 | 21800 ft | 408 kts | 264° |
| 2026-05-08 08:20 | 48.80090 | 2.34008 | 22315 ft | 412 kts | 269° |
| 2026-05-08 08:20 | 48.80100 | 2.29649 | 22828 ft | 414 kts | 269° |
| 2026-05-08 08:21 | 48.80117 | 2.25269 | 23325 ft | 417 kts | 269° |
| 2026-05-08 08:21 | 48.80129 | 2.20852 | 23783 ft | 420 kts | 269° |
| 2026-05-08 08:21 | 48.80136 | 2.16413 | 24215 ft | 422 kts | 269° |
| 2026-05-08 08:21 | 48.80140 | 2.11950 | 24625 ft | 424 kts | 269° |
| 2026-05-08 08:22 | 48.80140 | 2.07559 | 25020 ft | 426 kts | 269° |
| 2026-05-08 08:22 | 48.80139 | 2.03075 | 25418 ft | 428 kts | 269° |
| 2026-05-08 08:22 | 48.80136 | 1.98626 | 25804 ft | 430 kts | 269° |
| 2026-05-08 08:22 | 48.80130 | 1.94111 | 26195 ft | 432 kts | 268° |
| 2026-05-08 08:23 | 48.80123 | 1.89559 | 26567 ft | 434 kts | 268° |
| 2026-05-08 08:23 | 48.80114 | 1.85025 | 26927 ft | 435 kts | 268° |
| 2026-05-08 08:23 | 48.80102 | 1.80452 | 27286 ft | 437 kts | 268° |
| 2026-05-08 08:23 | 48.80089 | 1.75835 | 27636 ft | 439 kts | 268° |
| 2026-05-08 08:24 | 48.80074 | 1.71192 | 28046 ft | 440 kts | 268° |
| 2026-05-08 08:24 | 48.80058 | 1.66545 | 28432 ft | 441 kts | 268° |
| 2026-05-08 08:24 | 48.80039 | 1.61884 | 28747 ft | 443 kts | 268° |
| 2026-05-08 08:24 | 48.80018 | 1.57205 | 29057 ft | 445 kts | 268° |
| 2026-05-08 08:25 | 48.79995 | 1.52495 | 29372 ft | 447 kts | 268° |
| 2026-05-08 08:25 | 48.79971 | 1.47774 | 29697 ft | 449 kts | 268° |
| 2026-05-08 08:25 | 48.79944 | 1.43031 | 29973 ft | 451 kts | 268° |
| 2026-05-08 08:25 | 48.79916 | 1.38267 | 30294 ft | 451 kts | 268° |